Time;durP1;ratioP1;P1;durP2;ratioP2;P2;SDS_P1;SDS_P2;PMS_P1;PMS_P2;Temp;Humidity;BMP_temperature;BMP_pressure;BME280_temperature;BME280_humidity;BME280_pressure;Samples;Min_cycle;Max_cycle;Signal;HPM_P1;HPM_P2
2022/04/01 00:00:08;;;;;;;4.78;1.98;;;;;;;;;;5091907;28;20429;-68
2022/04/01 00:02:34;;;;;;;4.25;2.30;;;;;;;;;;5091221;28;20151;-68
2022/04/01 00:05:00;;;;;;;2.88;1.70;;;;;;;;;;5086601;28;20048;-68
2022/04/01 00:07:26;;;;;;;4.35;1.98;;;;;;;;;;5075915;28;20040;-68
2022/04/01 00:09:52;;;;;;;5.88;2.03;;;1.40;99.90;;;;;;5074435;28;20072;-68
2022/04/01 00:12:18;;;;;;;6.95;2.00;;;;;;;;;;5086917;28;20424;-68
2022/04/01 00:14:44;;;;;;;5.85;1.77;;;;;;;;;;5079110;28;20029;-68
2022/04/01 00:17:10;;;;;;;5.53;1.83;;;;;;;;;;5081219;28;20032;-69
2022/04/01 00:19:36;;;;;;;2.50;1.63;;;;;;;;;;5092795;28;20506;-68
2022/04/01 00:22:02;;;;;;;2.58;1.70;;;;;;;;;;5091351;28;20089;-68
2022/04/01 00:24:28;;;;;;;6.55;2.10;;;;;;;;;;5089735;28;20084;-69
2022/04/01 00:26:54;;;;;;;4.85;1.83;;;;;;;;;;5089918;28;20044;-69
2022/04/01 00:29:21;;;;;;;3.88;1.70;;;;;;;;;;5080499;28;20047;-69
2022/04/01 00:31:48;;;;;;;9.20;2.22;;;0.80;99.90;;;;;;5072330;28;20089;-69
2022/04/01 00:34:15;;;;;;;5.95;1.90;;;;;;;;;;5069978;28;20547;-69
2022/04/01 00:36:42;;;;;;;3.70;1.70;;;;;;;;;;5069566;28;20064;-69
2022/04/01 00:39:08;;;;;;;3.97;2.33;;;;;;;;;;5061096;28;20485;-69
2022/04/01 00:41:34;;;;;;;6.88;2.35;;;;;;;;;;5053806;28;20535;-69
2022/04/01 00:44:23;;;;;;;5.88;2.10;;;1.10;99.90;;;;;;5061326;28;20045;-69
2022/04/01 00:46:57;;;;;;;4.15;1.90;;;1.00;99.90;;;;;;5053539;28;20044;-69
2022/04/01 00:49:24;;;;;;;5.03;2.10;;;;;;;;;;5055804;28;20088;-69
2022/04/01 00:51:51;;;;;;;3.53;1.88;;;1.00;99.90;;;;;;5074851;28;20045;-69
2022/04/01 00:54:17;;;;;;;4.40;2.10;;;;;;;;;;5088268;28;20566;-69
2022/04/01 00:56:44;;;;;;;6.13;1.70;;;;;;;;;;5090899;28;20036;-69
2022/04/01 00:59:10;;;;;;;6.40;2.20;;;1.00;99.90;;;;;;5090639;28;20032;-69
2022/04/01 01:01:37;;;;;;;6.15;2.35;;;;;;;;;;5089568;28;20039;-69
2022/04/01 01:04:08;;;;;;;3.53;1.92;;;0.90;99.90;;;;;;5075789;28;20481;-69
2022/04/01 01:06:37;;;;;;;7.85;2.03;;;;;;;;;;5066225;28;20502;-69
2022/04/01 01:09:03;;;;;;;4.57;1.80;;;;;;;;;;5080368;28;20115;-69
2022/04/01 01:11:30;;;;;;;5.95;2.03;;;;;;;;;;5085750;28;20036;-69
2022/04/01 01:13:56;;;;;;;8.77;2.22;;;;;;;;;;5089216;28;20059;-69
2022/04/01 01:16:23;;;;;;;3.42;2.20;;;;;;;;;;5090637;28;20043;-69
2022/04/01 01:19:07;;;;;;;4.55;1.95;;;1.10;99.90;;;;;;5087310;28;20043;-69
2022/04/01 01:21:33;;;;;;;5.28;2.10;;;;;;;;;;5088668;28;20043;-69
2022/04/01 01:24:03;;;;;;;8.02;1.90;;;;;;;;;;5084575;28;20047;-69
2022/04/01 01:26:30;;;;;;;9.65;3.13;;;1.10;99.90;;;;;;5080266;28;20072;-69
2022/04/01 01:28:57;;;;;;;4.90;1.77;;;;;;;;;;5073054;28;20080;-69
2022/04/01 01:31:24;;;;;;;4.88;2.08;;;;;;;;;;5071916;28;20082;-69
2022/04/01 01:33:50;;;;;;;8.07;1.95;;;;;;;;;;5075500;28;20036;-69
2022/04/01 01:36:17;;;;;;;7.25;2.13;;;;;;;;;;5088925;28;20040;-69
2022/04/01 01:38:43;;;;;;;9.80;2.17;;;;;;;;;;5083635;28;20416;-69
2022/04/01 01:41:09;;;;;;;2.97;1.80;;;;;;;;;;5090719;28;20063;-69
2022/04/01 01:43:35;;;;;;;4.60;1.98;;;;;;;;;;5065814;28;20094;-69
2022/04/01 01:46:01;;;;;;;6.05;2.00;;;;;;;;;;5072709;28;20059;-69
2022/04/01 01:48:27;;;;;;;8.30;2.58;;;1.20;99.90;;;;;;5074948;28;20480;-69
2022/04/01 01:56:22;;;;;;;7.13;2.30;;;;;;;;;;5089921;28;20173;-69
2022/04/01 01:58:48;;;;;;;6.15;2.08;;;;;;;;;;5069059;28;20040;-69
2022/04/01 02:01:15;;;;;;;6.53;2.65;;;;;;;;;;5071883;28;20514;-69
2022/04/01 02:03:41;;;;;;;5.45;2.40;;;;;;;;;;5071447;28;20042;-69
2022/04/01 02:06:07;;;;;;;6.68;2.50;;;;;;;;;;5084239;28;20147;-69
2022/04/01 02:08:34;;;;;;;7.90;2.60;;;;;;;;;;5057040;28;20040;-69
2022/04/01 02:11:00;;;;;;;11.98;3.22;;;;;;;;;;5072747;28;20102;-69
2022/04/01 02:13:27;;;;;;;6.68;2.03;;;;;;;;;;5072744;28;20047;-69
2022/04/01 02:15:54;;;;;;;5.28;2.00;;;1.20;99.90;;;;;;5071496;28;20141;-69
2022/04/01 02:18:22;;;;;;;7.78;3.85;;;;;;;;;;5085304;28;20033;-69
2022/04/01 02:20:50;;;;;;;4.68;2.75;;;1.40;99.90;;;;;;5078998;28;20059;-70
2022/04/01 02:23:16;;;;;;;6.40;2.17;;;;;;;;;;5084191;28;20062;-69
2022/04/01 02:25:43;;;;;;;7.65;2.58;;;;;;;;;;5088244;28;20040;-69
2022/04/01 02:28:13;;;;;;;4.55;2.30;;;;;;;;;;5067191;28;20042;-69
2022/04/01 02:30:39;;;;;;;6.03;2.28;;;;;;;;;;5079092;28;20036;-69
2022/04/01 02:33:08;;;;;;;6.85;2.25;;;1.60;99.90;;;;;;5071599;28;20051;-69
2022/04/01 02:35:34;;;;;;;7.07;2.08;;;;;;;;;;5090812;28;20507;-69
2022/04/01 02:38:01;;;;;;;11.45;2.65;;;;;;;;;;5077089;28;20037;-69
2022/04/01 02:40:27;;;;;;;5.25;2.30;;;;;;;;;;5070081;28;20048;-69
2022/04/01 02:42:54;;;;;;;6.10;2.25;;;;;;;;;;5075690;28;20120;-69
2022/04/01 02:45:26;;;;;;;7.07;2.03;;;1.60;99.90;;;;;;5089426;28;20044;-69
2022/04/01 02:47:52;;;;;;;5.75;2.33;;;2.10;99.90;;;;;;5083922;28;20397;-69
2022/04/01 02:50:18;;;;;;;7.40;2.03;;;;;;;;;;5067435;28;20500;-69
2022/04/01 02:52:44;;;;;;;9.20;2.20;;;;;;;;;;5073463;28;20047;-69
2022/04/01 02:55:10;;;;;;;7.38;2.00;;;;;;;;;;5071373;28;20041;-69
2022/04/01 02:57:37;;;;;;;5.03;1.77;;;;;;;;;;5090562;28;20040;-69
2022/04/01 03:00:09;;;;;;;7.32;2.17;;;1.60;99.90;;;;;;5090296;28;20036;-69
2022/04/01 03:02:36;;;;;;;6.68;1.95;;;1.50;99.90;;;;;;5091784;28;20053;-69
2022/04/01 03:05:03;;;;;;;9.63;2.45;;;;;;;;;;5076139;28;20458;-69
2022/04/01 03:07:29;;;;;;;9.52;2.20;;;;;;;;;;5078206;28;20056;-66
2022/04/01 03:09:55;;;;;;;14.73;2.15;;;2.30;99.90;;;;;;5062743;28;20046;-68
2022/04/01 03:12:21;;;;;;;8.45;2.22;;;;;;;;;;5085942;28;20044;-67
2022/04/01 03:14:48;;;;;;;7.43;2.10;;;;;;;;;;5079596;28;20075;-67
2022/04/01 03:17:14;;;;;;;3.05;1.95;;;;;;;;;;5072855;28;20039;-67
2022/04/01 03:19:40;;;;;;;5.15;2.30;;;;;;;;;;5074240;28;20099;-67
2022/04/01 03:22:07;;;;;;;9.48;2.17;;;;;;;;;;5074281;28;20047;-67
2022/04/01 03:24:33;;;;;;;7.95;2.67;;;;;;;;;;5080485;28;20048;-67
2022/04/01 03:26:59;;;;;;;6.57;1.80;;;;;;;;;;5076715;28;20040;-67
2022/04/01 03:29:25;;;;;;;7.55;2.42;;;;;;;;;;5090505;28;20044;-67
2022/04/01 03:31:51;;;;;;;9.02;2.20;;;;;;;;;;5092563;28;20418;-67
2022/04/01 03:34:18;;;;;;;8.70;2.80;;;;;;;;;;5092204;28;20174;-67
2022/04/01 03:36:44;;;;;;;3.30;1.83;;;;;;;;;;5086872;28;20159;-67
2022/04/01 03:39:10;;;;;;;4.68;2.08;;;;;;;;;;5075224;28;20040;-66
2022/04/01 03:41:37;;;;;;;11.02;1.90;;;;;;;;;;5085113;28;20089;-67
2022/04/01 03:44:03;;;;;;;5.40;2.40;;;1.00;99.90;;;;;;5085561;28;20515;-67
2022/04/01 03:46:33;;;;;;;7.32;2.00;;;;;;;;;;5083749;28;20137;-67
2022/04/01 03:49:03;;;;;;;4.07;1.85;;;;;;;;;;5092255;28;20043;-67
2022/04/01 03:51:30;;;;;;;7.35;2.13;;;1.90;99.90;;;;;;5077298;28;20041;-67
2022/04/01 03:53:58;;;;;;;6.50;1.90;;;;;;;;;;5086455;28;20070;-67
2022/04/01 03:56:34;;;;;;;9.73;2.20;;;2.00;99.90;;;;;;5075055;28;20044;-67
2022/04/01 03:59:05;;;;;;;4.07;2.08;;;;;;;;;;5090190;28;20446;-67
2022/04/01 04:01:31;;;;;;;12.07;2.00;;;;;;;;;;5079728;28;20037;-67
2022/04/01 04:03:58;;;;;;;12.00;2.28;;;;;;;;;;5071464;28;20422;-67
2022/04/01 04:06:25;;;;;;;7.03;2.22;;;;;;;;;;5091391;28;20047;-67
2022/04/01 04:08:55;;;;;;;8.07;2.20;;;;;;;;;;5088749;28;20040;-67
2022/04/01 04:11:23;;;;;;;7.47;3.40;;;;;;;;;;5075572;28;20048;-69
2022/04/01 04:13:51;;;;;;;6.80;2.13;;;;;;;;;;5079266;28;20037;-67
2022/04/01 04:16:21;;;;;;;5.75;2.35;;;;;;;;;;5080980;28;20113;-67
2022/04/01 04:19:00;;;;;;;6.07;1.85;;;2.00;99.90;;;;;;5074194;28;20070;-68
2022/04/01 04:21:31;;;;;;;8.82;2.42;;;2.00;99.90;;;;;;5075611;28;20032;-67
2022/04/01 04:24:01;;;;;;;3.17;1.70;;;2.20;99.90;;;;;;5091120;28;20126;-67
2022/04/01 04:26:46;;;;;;;7.00;2.78;;;;;;;;;;5088943;28;21407;-67
2022/04/01 04:29:14;;;;;;;8.07;1.92;;;2.20;99.90;;;;;;5055151;28;20037;-67
2022/04/01 04:31:56;;;;;;;7.45;2.45;;;;;;;;;;5054244;28;20032;-67
2022/04/01 04:34:26;;;;;;;5.70;1.80;;;1.90;99.90;;;;;;5037912;28;20056;-67
2022/04/01 04:36:56;;;;;;;6.93;2.00;;;;;;;;;;5069702;28;20055;-67
2022/04/01 04:39:30;;;;;;;8.07;2.45;;;;;;;;;;5070836;28;20078;-67
2022/04/01 04:41:56;;;;;;;17.20;2.97;;;;;;;;;;5047221;28;20506;-67
2022/04/01 04:44:29;;;;;;;9.23;2.38;;;2.00;99.90;;;;;;5069062;28;20044;-67
2022/04/01 04:46:59;;;;;;;8.35;2.17;;;;;;;;;;5070105;28;20056;-67
2022/04/01 04:49:30;;;;;;;6.45;2.60;;;2.20;99.90;;;;;;5072814;28;20126;-67
2022/04/01 04:51:57;;;;;;;11.02;2.17;;;1.70;99.90;;;;;;5092114;28;20546;-67
2022/04/01 04:54:25;;;;;;;9.55;2.25;;;2.40;99.90;;;;;;5092163;28;20028;-67
2022/04/01 04:56:53;;;;;;;11.55;2.60;;;;;;;;;;5080162;28;20044;-67
2022/04/01 04:59:20;;;;;;;11.45;2.50;;;2.00;99.90;;;;;;5080380;28;20047;-67
2022/04/01 05:01:54;;;;;;;15.20;2.65;;;;;;;;;;5077955;28;20048;-67
2022/04/01 05:04:43;;;;;;;8.27;2.35;;;2.30;99.90;;;;;;5072382;28;20052;-67
2022/04/01 05:07:29;;;;;;;6.28;3.00;;;1.90;99.90;;;;;;5073649;28;20036;-67
2022/04/01 05:10:02;;;;;;;10.68;2.17;;;;;;;;;;5084881;28;20048;-67
2022/04/01 05:13:03;;;;;;;5.47;2.25;;;;;;;;;;5064857;28;20040;-67
2022/04/01 05:15:31;;;;;;;10.40;2.85;;;;;;;;;;5043906;28;20041;-67
2022/04/01 05:18:06;;;;;;;7.28;2.47;;;;;;;;;;5077247;28;20048;-67
2022/04/01 05:20:38;;;;;;;16.73;2.97;;;;;;;;;;5089808;28;20036;-67
2022/04/01 05:23:06;;;;;;;10.00;3.22;;;;;;;;;;5073932;28;20041;-66
2022/04/01 05:25:44;;;;;;;6.25;2.35;;;2.10;99.90;;;;;;5073241;28;20048;-66
2022/04/01 05:28:24;;;;;;;4.78;2.10;;;;;;;;;;5079602;28;20040;-66
2022/04/01 05:31:10;;;;;;;8.65;2.40;;;;;;;;;;5080867;28;20063;-67
2022/04/01 05:34:00;;;;;;;12.52;2.85;;;;;;;;;;5068788;28;20396;-67
2022/04/01 05:36:26;;;;;;;10.88;2.50;;;;;;;;;;5072949;28;20041;-67
2022/04/01 05:38:53;;;;;;;7.97;2.63;;;;;;;;;;5082826;28;20043;-67
2022/04/01 05:41:21;;;;;;;6.55;2.38;;;;;;;;;;5089905;28;20051;-67
2022/04/01 05:43:47;;;;;;;8.73;2.35;;;;;;;;;;5089304;28;20089;-67
2022/04/01 05:46:19;;;;;;;8.40;2.55;;;2.30;99.90;;;;;;5088798;28;20044;-67
2022/04/01 05:48:46;;;;;;;9.33;2.40;;;;;;;;;;5085221;28;20111;-67
2022/04/01 05:51:13;;;;;;;9.77;2.92;;;;;;;;;;5079408;28;20044;-68
2022/04/01 05:53:40;;;;;;;6.43;2.78;;;;;;;;;;5067588;28;20044;-67
2022/04/01 05:56:07;;;;;;;9.60;2.60;;;;;;;;;;5072869;28;20086;-67
2022/04/01 05:58:33;;;;;;;7.75;2.08;;;;;;;;;;5078956;28;20040;-67
2022/04/01 06:01:08;;;;;;;6.97;2.53;;;;;;;;;;5075451;28;20049;-76
2022/04/01 06:03:40;;;;;;;11.10;2.72;;;2.40;99.90;;;;;;5086083;28;20478;-68
2022/04/01 06:06:21;;;;;;;8.82;2.53;;;;;;;;;;5088358;28;20036;-68
2022/04/01 06:09:24;;;;;;;12.55;2.45;;;2.20;99.90;;;;;;5083762;28;20036;-68
2022/04/01 06:11:50;;;;;;;8.05;2.95;;;;;;;;;;5077675;28;20044;-68
2022/04/01 06:14:27;;;;;;;4.05;1.92;;;;;;;;;;5080611;28;20408;-68
2022/04/01 06:16:57;;;;;;;4.78;2.00;;;;;;;;;;5063391;28;20044;-68
2022/04/01 06:19:24;;;;;;;4.95;1.98;;;;;;;;;;5071536;28;20064;-68
2022/04/01 06:22:06;;;;;;;5.55;1.75;;;2.50;99.90;;;;;;5071568;28;20461;-67
2022/04/01 06:24:53;;;;;;;9.77;2.38;;;2.50;99.90;;;;;;5072540;28;20499;-68
2022/04/01 06:27:28;;;;;;;9.05;2.42;;;2.40;99.90;;;;;;5081303;28;20075;-67
2022/04/01 06:30:03;;;;;;;7.80;2.22;;;;;;;;;;5081429;28;20063;-67
2022/04/01 06:32:33;;;;;;;5.68;1.77;;;;;;;;;;5060877;28;20040;-68
2022/04/01 06:35:18;;;;;;;8.13;1.75;;;2.50;99.90;;;;;;5080533;28;20041;-68
2022/04/01 06:38:05;;;;;;;10.82;1.98;;;;;;;;;;5086835;28;20036;-70
2022/04/01 06:40:50;;;;;;;7.85;2.20;;;;;;;;;;5085074;28;20044;-69
2022/04/01 06:43:17;;;;;;;6.55;1.92;;;2.60;99.90;;;;;;5093220;28;20079;-68
2022/04/01 06:45:43;;;;;;;7.40;2.17;;;;;;;;;;5075044;28;20078;-68
2022/04/01 06:48:09;;;;;;;8.40;2.10;;;;;;;;;;5087719;28;20032;-67
2022/04/01 06:50:35;;;;;;;7.35;1.92;;;;;;;;;;5077830;28;20052;-67
2022/04/01 06:53:02;;;;;;;6.43;2.10;;;;;;;;;;5079177;28;20051;-67
2022/04/01 06:55:28;;;;;;;6.03;1.85;;;;;;;;;;5080920;28;20059;-67
2022/04/01 06:57:54;;;;;;;5.47;1.65;;;;;;;;;;5077432;28;20494;-67
2022/04/01 07:00:21;;;;;;;7.25;2.17;;;;;;;;;;5077646;28;20056;-67
2022/04/01 07:02:49;;;;;;;4.45;2.03;;;;;;;;;;5089871;28;20040;-67
2022/04/01 07:05:15;;;;;;;6.07;2.13;;;;;;;;;;5087025;28;20048;-69
2022/04/01 07:07:42;;;;;;;5.65;2.38;;;2.60;99.90;;;;;;5055328;28;20081;-67
2022/04/01 07:10:09;;;;;;;6.68;2.10;;;;;;;;;;5065485;28;20043;-67
2022/04/01 07:12:37;;;;;;;4.45;1.85;;;;;;;;;;5093915;28;20388;-67
2022/04/01 07:15:03;;;;;;;8.80;2.10;;;2.40;99.90;;;;;;5081498;28;20036;-68
2022/04/01 07:17:29;;;;;;;8.73;2.13;;;2.30;99.90;;;;;;5059227;28;20122;-67
2022/04/01 07:19:55;;;;;;;6.60;1.90;;;;;;;;;;5093791;28;20124;-67
2022/04/01 07:22:21;;;;;;;7.10;2.97;;;;;;;;;;5090990;28;20044;-67
2022/04/01 07:24:48;;;;;;;4.70;1.98;;;;;;;;;;5090972;28;20058;-67
2022/04/01 07:27:14;;;;;;;5.22;2.22;;;;;;;;;;5077516;28;20055;-67
2022/04/01 07:29:40;;;;;;;11.23;2.13;;;;;;;;;;5060405;28;20036;-67
2022/04/01 07:34:52;;;;;;;7.30;2.03;;;;;;;;;;5089145;28;20036;-65
2022/04/01 07:37:22;;;;;;;7.45;2.17;;;;;;;;;;5080858;28;20067;-65
2022/04/01 07:39:48;;;;;;;7.85;2.70;;;;;;;;;;5081646;28;20049;-65
2022/04/01 07:42:14;;;;;;;7.88;2.22;;;;;;;;;;5090322;28;20519;-65
2022/04/01 07:44:40;;;;;;;8.32;2.10;;;;;;;;;;5091352;28;20526;-65
2022/04/01 07:47:09;;;;;;;8.73;1.80;;;3.30;99.90;;;;;;5091485;28;20117;-66
2022/04/01 07:49:40;;;;;;;4.20;1.95;;;3.20;99.90;;;;;;5074553;28;20068;-65
2022/04/01 07:52:08;;;;;;;13.60;2.25;;;;;;;;;;5040343;28;20033;-66
2022/04/01 07:54:35;;;;;;;7.20;2.10;;;;;;;;;;5084644;28;20031;-65
2022/04/01 07:57:02;;;;;;;9.05;3.00;;;;;;;;;;5093021;28;20035;-65
2022/04/01 07:59:28;;;;;;;6.65;2.65;;;;;;;;;;5087535;28;20048;-65
2022/04/01 08:01:54;;;;;;;6.78;3.15;;;;;;;;;;5071563;28;20036;-65
2022/04/01 08:04:20;;;;;;;5.15;1.98;;;;;;;;;;5073462;28;20040;-65
2022/04/01 08:06:46;;;;;;;7.03;1.98;;;;;;;;;;5075864;28;20378;-65
2022/04/01 08:09:12;;;;;;;8.25;2.33;;;;;;;;;;5060332;28;20068;-65
2022/04/01 08:11:38;;;;;;;4.90;1.80;;;;;;;;;;5081768;28;20376;-65
2022/04/01 08:14:04;;;;;;;6.75;1.88;;;;;;;;;;5084156;28;20047;-65
2022/04/01 08:16:31;;;;;;;7.85;2.17;;;;;;;;;;5073787;28;20036;-65
2022/04/01 08:18:57;;;;;;;8.48;2.25;;;;;;;;;;5074260;28;20384;-65
2022/04/01 08:21:24;;;;;;;4.05;1.90;;;;;;;;;;5089436;28;20437;-65
2022/04/01 08:23:50;;;;;;;10.80;2.17;;;;;;;;;;5088330;28;20396;-65
2022/04/01 08:26:16;;;;;;;5.40;2.00;;;;;;;;;;5074000;28;20504;-65
2022/04/01 08:28:42;;;;;;;5.82;1.90;;;;;;;;;;5071648;28;20044;-65
2022/04/01 08:31:09;;;;;;;10.80;1.90;;;;;;;;;;5076817;28;20044;-65
2022/04/01 08:33:35;;;;;;;3.72;2.00;;;;;;;;;;5056203;28;20112;-65
2022/04/01 08:36:01;;;;;;;4.80;2.08;;;;;;;;;;5071882;28;20158;-65
2022/04/01 08:38:27;;;;;;;2.65;1.65;;;;;;;;;;5065544;28;20483;-67
2022/04/01 08:40:54;;;;;;;4.22;1.65;;;;;;;;;;5061946;28;20040;-67
2022/04/01 08:43:28;;;;;;;4.38;1.92;;;;;;;;;;5052743;28;20045;-67
2022/04/01 08:45:56;;;;;;;8.75;2.22;;;4.20;99.90;;;;;;5064368;28;20101;-67
2022/04/01 08:48:22;;;;;;;6.60;2.78;;;;;;;;;;5059917;28;20059;-67
2022/04/01 08:50:48;;;;;;;10.65;2.13;;;;;;;;;;5059963;28;20045;-67
2022/04/01 08:53:14;;;;;;;9.35;2.35;;;;;;;;;;5081231;28;20503;-67
2022/04/01 08:55:45;;;;;;;4.30;2.10;;;;;;;;;;5091237;28;20383;-67
2022/04/01 08:58:11;;;;;;;5.18;2.13;;;;;;;;;;5090347;28;20137;-67
2022/04/01 09:00:37;;;;;;;7.03;2.05;;;;;;;;;;5082692;28;20146;-64
2022/04/01 09:03:08;;;;;;;7.28;2.40;;;;;;;;;;5083524;28;20032;-65
2022/04/01 09:05:34;;;;;;;6.85;2.33;;;;;;;;;;5056590;28;20040;-66
2022/04/01 09:08:04;;;;;;;8.02;2.25;;;;;;;;;;5076565;28;20477;-65
2022/04/01 09:10:31;;;;;;;6.70;2.30;;;;;;;;;;5088240;28;20036;-65
2022/04/01 09:12:57;;;;;;;8.52;2.38;;;;;;;;;;5085050;28;20505;-65
2022/04/01 09:15:38;;;;;;;8.15;2.45;;;;;;;;;;5075760;28;20393;-65
2022/04/01 09:18:04;;;;;;;3.50;1.85;;;5.00;99.90;;;;;;5073197;28;20041;-65
2022/04/01 09:20:42;;;;;;;6.25;2.15;;;;;;;;;;5084521;28;20400;-65
2022/04/01 09:23:08;;;;;;;5.90;2.15;;;;;;;;;;5092568;28;20531;-65
2022/04/01 09:25:34;;;;;;;6.03;2.47;;;;;;;;;;5092192;28;20151;-65
2022/04/01 09:28:00;;;;;;;6.65;2.22;;;;;;;;;;5092014;28;20055;-65
2022/04/01 09:30:31;;;;;;;10.75;2.92;;;;;;;;;;5093044;28;20511;-65
2022/04/01 09:33:02;;;;;;;11.02;2.75;;;4.70;99.90;;;;;;5092283;28;20048;-65
2022/04/01 09:35:33;;;;;;;5.00;2.20;;;4.60;99.90;;;;;;5092333;28;20051;-65
2022/04/01 09:38:04;;;;;;;7.38;2.28;;;;;;;;;;5092307;28;20098;-65
2022/04/01 09:40:30;;;;;;;4.93;2.15;;;;;;;;;;5092020;28;20048;-65
2022/04/01 09:42:58;;;;;;;6.55;2.30;;;5.00;99.90;;;;;;5091800;28;20047;-65
2022/04/01 09:45:30;;;;;;;8.27;2.13;;;5.00;99.90;;;;;;5091880;28;20101;-65
2022/04/01 09:48:01;;;;;;;8.57;2.40;;;5.00;99.90;;;;;;5091996;28;20054;-65
2022/04/01 09:50:36;;;;;;;4.88;2.38;;;5.00;99.90;;;;;;5091706;28;20051;-65
2022/04/01 09:53:09;;;;;;;4.13;2.25;;;;;;;;;;5075132;28;20068;-65
2022/04/01 09:55:36;;;;;;;12.15;2.53;;;5.00;99.90;;;;;;5091802;28;20040;-65
2022/04/01 09:58:03;;;;;;;8.52;2.53;;;;;;;;;;5091807;28;20044;-65
2022/04/01 10:00:29;;;;;;;8.30;2.50;;;;;;;;;;5091670;28;20392;-65
2022/04/01 10:02:55;;;;;;;7.95;3.40;;;;;;;;;;5093100;28;20487;-65
2022/04/01 10:05:21;;;;;;;7.40;2.28;;;;;;;;;;5094084;28;20036;-65
2022/04/01 10:07:47;;;;;;;6.40;2.30;;;4.40;99.90;;;;;;5096334;28;20036;-65
2022/04/01 10:10:14;;;;;;;7.00;2.60;;;;;;;;;;5079156;28;20044;-65
2022/04/01 10:12:42;;;;;;;7.70;2.20;;;;;;;;;;5079347;28;20036;-65
2022/04/01 10:15:10;;;;;;;8.55;2.20;;;;;;;;;;5097178;28;20046;-65
2022/04/01 10:17:39;;;;;;;15.27;2.15;;;4.90;99.90;;;;;;5079124;28;20473;-65
2022/04/01 10:20:06;;;;;;;6.72;2.13;;;;;;;;;;5097077;28;20047;-65
2022/04/01 10:22:32;;;;;;;3.42;1.98;;;;;;;;;;5095874;28;20040;-66
2022/04/01 10:25:01;;;;;;;3.55;1.75;;;;;;;;;;5096805;28;20044;-65
2022/04/01 10:27:30;;;;;;;3.95;1.55;;;;;;;;;;5095777;28;20044;-65
2022/04/01 10:29:57;;;;;;;5.75;1.98;;;;;;;;;;5078664;28;20039;-65
2022/04/01 10:32:24;;;;;;;7.13;1.90;;;;;;;;;;5095356;28;20040;-65
2022/04/01 10:34:53;;;;;;;7.70;2.13;;;5.00;99.90;;;;;;5095532;28;20040;-65
2022/04/01 10:37:21;;;;;;;3.28;2.00;;;;;;;;;;5096810;28;20109;-65
2022/04/01 10:39:55;;;;;;;5.97;2.30;;;;;;;;;;5095346;28;20119;-65
2022/04/01 10:42:24;;;;;;;6.47;2.13;;;;;;;;;;5095157;28;20079;-65
2022/04/01 10:44:51;;;;;;;7.32;2.10;;;4.90;99.90;;;;;;5095122;28;20089;-65
2022/04/01 10:47:18;;;;;;;6.75;2.20;;;;;;;;;;5096473;28;20036;-65
2022/04/01 10:52:30;;;;;;;7.13;1.80;;;;;;;;;;5095119;28;20043;-65
2022/04/01 10:55:14;;;;;;;6.93;2.40;;;4.80;99.90;;;;;;5095037;28;20044;-66
2022/04/01 10:57:40;;;;;;;5.85;1.80;;;;;;;;;;5078800;28;20518;-66
2022/04/01 11:00:14;;;;;;;6.50;2.10;;;4.80;99.90;;;;;;5095045;28;20036;-66
2022/04/01 11:02:40;;;;;;;5.05;2.00;;;;;;;;;;5095269;28;20047;-66
2022/04/01 11:05:26;;;;;;;11.75;2.50;;;;;;;;;;5096231;28;20387;-66
2022/04/01 11:08:10;;;;;;;7.72;2.20;;;;;;;;;;5077859;28;20119;-66
2022/04/01 11:10:37;;;;;;;4.60;1.75;;;;;;;;;;5077793;28;20079;-66
2022/04/01 11:13:03;;;;;;;2.90;1.60;;;;;;;;;;5094717;28;20042;-66
2022/04/01 11:15:30;;;;;;;3.95;2.00;;;;;;;;;;5094983;28;20065;-66
2022/04/01 11:17:56;;;;;;;4.07;1.77;;;;;;;;;;5092554;28;20043;-66
2022/04/01 11:20:22;;;;;;;7.57;2.75;;;;;;;;;;5093906;28;20073;-66
2022/04/01 11:22:48;;;;;;;7.25;2.03;;;;;;;;;;5092583;28;20058;-66
2022/04/01 11:25:35;;;;;;;6.88;2.75;;;;;;;;;;5094461;28;20094;-66
2022/04/01 11:28:01;;;;;;;4.68;1.90;;;;;;;;;;5093897;28;20044;-66
2022/04/01 11:30:36;;;;;;;6.18;2.30;;;4.50;99.90;;;;;;5093716;28;20044;-66
2022/04/01 11:33:02;;;;;;;6.03;2.08;;;;;;;;;;5094348;28;20043;-66
2022/04/01 11:35:29;;;;;;;12.00;2.88;;;;;;;;;;5091820;28;20047;-68
2022/04/01 11:37:56;;;;;;;7.53;2.40;;;4.90;99.90;;;;;;5059827;28;20039;-66
2022/04/01 11:40:27;;;;;;;8.27;2.40;;;4.70;99.90;;;;;;5094316;28;20048;-67
2022/04/01 11:43:00;;;;;;;10.82;2.58;;;;;;;;;;5088494;28;20071;-67
2022/04/01 11:45:27;;;;;;;7.65;2.53;;;;;;;;;;5058254;28;20044;-67
2022/04/01 11:47:54;;;;;;;5.43;2.20;;;;;;;;;;5073673;28;20081;-67
2022/04/01 11:50:21;;;;;;;11.73;2.40;;;;;;;;;;5052794;28;20053;-67
2022/04/01 11:52:48;;;;;;;8.85;2.55;;;;;;;;;;5072079;28;20041;-67
2022/04/01 11:55:19;;;;;;;7.25;2.22;;;5.50;99.00;;;;;;5074797;28;20461;-67
2022/04/01 11:57:45;;;;;;;8.65;2.78;;;;;;;;;;5073682;28;20055;-67
2022/04/01 12:00:12;;;;;;;7.20;2.35;;;;;;;;;;5073935;28;20519;-67
2022/04/01 12:02:39;;;;;;;6.82;2.67;;;;;;;;;;5057951;28;20118;-67
2022/04/01 12:05:05;;;;;;;5.95;2.22;;;5.50;98.10;;;;;;5073612;28;20094;-67
2022/04/01 12:10:20;;;;;;;9.02;2.40;;;5.50;99.00;;;;;;5091426;28;20048;-67
2022/04/01 12:13:00;;;;;;;8.98;2.28;;;;;;;;;;5087441;28;20040;-67
2022/04/01 12:15:34;;;;;;;4.68;2.28;;;5.60;98.60;;;;;;5073504;28;20047;-67
2022/04/01 12:18:01;;;;;;;5.82;2.55;;;;;;;;;;5074574;28;20162;-67
2022/04/01 12:20:28;;;;;;;7.00;2.00;;;;;;;;;;5073353;28;20047;-67
2022/04/01 12:23:03;;;;;;;7.85;2.13;;;;;;;;;;5090424;28;20048;-67
2022/04/01 12:25:31;;;;;;;6.05;2.38;;;;;;;;;;5073661;28;20052;-67
2022/04/01 12:28:01;;;;;;;3.58;2.08;;;;;;;;;;5074422;28;20063;-67
2022/04/01 12:30:48;;;;;;;6.07;2.00;;;;;;;;;;5072101;28;20123;-67
2022/04/01 12:33:24;;;;;;;5.57;2.10;;;;;;;;;;5074795;28;20373;-67
2022/04/01 12:35:55;;;;;;;13.40;2.67;;;5.80;95.10;;;;;;5093059;28;20036;-67
2022/04/01 12:38:21;;;;;;;3.70;1.95;;;;;;;;;;5091301;28;20044;-67
2022/04/01 12:40:49;;;;;;;39.42;3.22;;;5.90;95.90;;;;;;5093017;28;20069;-67
2022/04/01 12:43:30;;;;;;;66.70;4.30;;;6.30;94.30;;;;;;5074240;28;20052;-67
2022/04/01 12:46:17;;;;;;;6.72;2.25;;;6.40;95.50;;;;;;5072684;28;20045;-67
2022/04/01 12:48:54;;;;;;;5.85;2.15;;;;;;;;;;5073235;28;20067;-67
2022/04/01 12:51:25;;;;;;;5.47;1.80;;;;;;;;;;5073658;28;20048;-67
2022/04/01 12:53:52;;;;;;;7.53;2.30;;;6.10;93.00;;;;;;5092470;28;20093;-67
2022/04/01 12:56:22;;;;;;;7.55;1.90;;;;;;;;;;5092729;28;20415;-67
2022/04/01 12:58:48;;;;;;;5.47;1.70;;;;;;;;;;5092068;28;20380;-67
2022/04/01 13:01:14;;;;;;;5.38;1.80;;;;;;;;;;5092213;28;20070;-67
2022/04/01 13:03:48;;;;;;;6.40;1.95;;;;;;;;;;5058762;28;20089;-68
2022/04/01 13:06:15;;;;;;;5.13;1.70;;;;;;;;;;5092043;28;20508;-68
2022/04/01 13:08:42;;;;;;;5.57;2.40;;;;;;;;;;5056004;28;20047;-68
2022/04/01 13:11:15;;;;;;;7.47;2.10;;;;;;;;;;5088064;28;20530;-68
2022/04/01 13:13:50;;;;;;;17.27;2.50;;;6.10;96.50;;;;;;5092065;28;20040;-68
2022/04/01 13:16:16;;;;;;;5.20;1.77;;;;;;;;;;5076367;28;20037;-68
2022/04/01 13:18:42;;;;;;;9.35;2.33;;;;;;;;;;5092027;28;20047;-68
2022/04/01 13:21:08;;;;;;;9.48;2.08;;;;;;;;;;5090836;28;20051;-68
2022/04/01 13:23:35;;;;;;;8.20;2.00;;;;;;;;;;5075465;28;20051;-68
2022/04/01 13:26:01;;;;;;;7.90;2.35;;;7.20;95.50;;;;;;5091972;28;20501;-68
2022/04/01 13:28:27;;;;;;;4.90;1.80;;;;;;;;;;5074544;28;20258;-68
2022/04/01 13:30:53;;;;;;;6.50;2.00;;;;;;;;;;5071524;28;20044;-68
2022/04/01 13:33:19;;;;;;;7.03;1.70;;;;;;;;;;5074170;28;20089;-68
2022/04/01 13:35:46;;;;;;;5.47;1.77;;;;;;;;;;5092035;28;20048;-68
2022/04/01 13:38:12;;;;;;;7.72;2.15;;;;;;;;;;5076679;28;20044;-68
2022/04/01 13:40:38;;;;;;;6.07;2.05;;;;;;;;;;5071425;28;20048;-68
2022/04/01 13:43:04;;;;;;;12.63;2.10;;;;;;;;;;5069486;28;20481;-68
2022/04/01 13:45:33;;;;;;;5.35;2.00;;;;;;;;;;5072038;28;20044;-68
2022/04/01 13:47:58;;;;;;;7.82;1.75;;;6.60;95.10;;;;;;5055465;28;20048;-68
2022/04/01 13:50:26;;;;;;;5.95;1.80;;;7.40;95.80;;;;;;5071715;28;20078;-68
2022/04/01 13:52:52;;;;;;;4.75;1.80;;;;;;;;;;5077130;28;20411;-68
2022/04/01 13:55:18;;;;;;;11.00;1.88;;;;;;;;;;5092094;28;20098;-68
2022/04/01 13:57:46;;;;;;;8.63;2.10;;;;;;;;;;5092108;28;20091;-68
2022/04/01 14:00:12;;;;;;;8.10;2.45;;;6.30;92.80;;;;;;5076277;28;20443;-68
2022/04/01 14:02:40;;;;;;;6.95;2.10;;;;;;;;;;5056070;28;20078;-68
2022/04/01 14:05:06;;;;;;;6.07;1.92;;;5.70;94.30;;;;;;5054876;28;20044;-68
2022/04/01 14:07:32;;;;;;;7.05;2.33;;;;;;;;;;5058373;28;20493;-68
2022/04/01 14:09:58;;;;;;;4.40;1.92;;;;;;;;;;5072166;28;20500;-68
2022/04/01 14:12:26;;;;;;;9.82;2.00;;;;;;;;;;5077682;28;20076;-67
2022/04/01 14:14:52;;;;;;;7.68;1.95;;;7.10;95.50;;;;;;5071707;28;20044;-67
2022/04/01 14:17:19;;;;;;;8.75;2.83;;;;;;;;;;5056479;28;20484;-67
2022/04/01 14:19:45;;;;;;;7.40;2.40;;;6.20;93.30;;;;;;5034008;28;20048;-68
2022/04/01 14:22:11;;;;;;;3.05;1.98;;;;;;;;;;5051311;28;20047;-68
2022/04/01 14:24:37;;;;;;;6.78;2.50;;;;;;;;;;5054857;28;20036;-67
2022/04/01 14:27:02;;;;;;;9.68;2.53;;;6.90;92.20;;;;;;5071111;28;20055;-67
2022/04/01 14:32:13;;;;;;;9.75;2.25;;;;;;;;;;5051326;28;20057;-67
2022/04/01 14:34:43;;;;;;;6.82;2.85;;;;;;;;;;5051190;28;20037;-67
2022/04/01 14:37:09;;;;;;;15.23;2.50;;;;;;;;;;5051307;28;20040;-67
2022/04/01 14:39:36;;;;;;;6.63;2.03;;;;;;;;;;5052429;28;20049;-67